Piney, Arkansas
Current Conditions -  °F | °C
As of 4:53 PM on Monday 22 Dec 2014 (Local Time) from KHOT Reporting Station
Haze Haze  
Wind Chill: 13°   Ceiling: 1400
Heat Index: 13°   Visibility: 6mi
Dew Point: 12°   Wind: 3mph
Humidity: 93%   Direction: 140°SE
Pressure: 29.57"   Gusts: NA
Location:  34.5331°N, 93.0035°W
Report Text: KHOT 222253Z AUTO 14003KT 6SM BR BKN014 OVC021 13/12 A2957 RMK AO2 RAB16E28 SLP012 P0000 T01280117
Loading
Personal Weather Stations






























Interactive Weather Map New forecast layout! Learn more

10-Day Weather Forecast

Advertisements
Track Severe Weather on mobile